VTBS/BKK METAR and TAF weather

Enter ICAO airport designator
Station Type Date Time Source
VTBS METAR 2021/07/28 20:00 UTC NOAA

VTBS 282000Z 21003KT 9999 FEW020 27/25 Q1005 NOSIG


Station Type Date Time Source
VTBS Decoded METAR 2021/07/28 20:00 UTC NOAA

Chon Buri, Thailand (VTBS) 13-22N 100-59E 2M
Jul 28, 2021 - 04:00 PM EDT / 2021.07.28 2000 UTC
Wind: from the SSW (210 degrees) at 3 MPH (3 KT):0
Visibility: greater than 7 mile(s):0
Sky conditions: mostly clear
Temperature: 80 F (27 C)
Dew Point: 77 F (25 C)
Relative Humidity: 88%
Pressure (altimeter): 29.68 in. Hg (1005 hPa)
ob: VTBS 282000Z 21003KT 9999 FEW020 27/25 Q1005 NOSIG
cycle: 20

Station Type Date Time Source
VTBS TAF 2021/07/28 18:00 UTC NOAA

TAF VTBS 281700Z 2818/2924 20008KT 9999 FEW020
TEMPO 2910/2914 VRB15KT 3000 TSRA FEW018CB SCT030

Example: see airport list